Aérodrome :
LOGIN :

S'inscrire | Disclaimer

   EN    FR    IT 

 










Légende :    VFR   VFR Marginal   IFR   IFR Intensif   IFR Très Intensif
Visi : 
Plafond : 
>= 8 km
>= 3000ft
5 à 8 km
1000 à 3000 ft
1500m à 5 km
500 à 1000 ft
800 à 1500m
200 à 500 ft
< 800m
< 200 ft
Symboles :   Orages  Brouillard  Fortes neiges  Fortes précipitations  Vent > 20 kt
SIGMETs :   Divers  Orages  Givrage  Turbulence  Onde Orograph.  Cendres Volcan.






- Altitude de l'aérodrome : 187 ft


ETNW - Wunstorf AB

DERNIER METAR :
  • 111720Z 10011KT 9999 FEW080 32/13 Q1016 BLU+

METARs EXPIRÉS :
  • 111620Z 13011KT 9999 FEW070 33/14 Q1016 BLU+
  • 111520Z 11014KT 9999 FEW070 33/14 Q1016 BLU+

TAF TAF ETNW
Valide du 11 à 11h jusqu'au 12 à 11h UTC


111000Z 1111/1211 12012KT 9999 NSW FEW060
PROB30 1113/1118 VRB15G30KT 4000 TSRA SCT040 BKN060CB
BECMG 1121/1123 08005KT 9999 NSW FEW060 BY ETGL



MET'MAP, la Météo Aéronautique d'un coup d'oeil ! - Copyright ORBIFLY Décembre 2007 - Disclaimer

ORBIFLY MET'MAP TEAM :

Programmation & Développement : Alexandra Zaïnal
Sur une idée originale de : Baudouin d'Aumeries
Assistance à la programmation : Marc-Olivier Méhu
Soutien technique & logistique : Manuel Goepfert

Contact : metmap@orbifly.com




SOURCES & CREDITS :

   NOAA